createdAt,value
2023-05-04T16:25:21.581Z,2.45
2023-05-04T16:30:31.801Z,2.20
2023-05-04T16:35:36.707Z,2.72
2023-05-04T16:40:43.330Z,2.42
2023-05-04T16:45:47.339Z,2.50
2023-05-04T16:50:51.595Z,2.40
2023-05-04T16:55:57.701Z,2.45
2023-05-04T17:01:02.226Z,2.25
2023-05-04T17:06:06.982Z,2.38
2023-05-04T17:11:13.159Z,2.42
2023-05-04T17:16:17.237Z,2.30
2023-05-04T17:21:21.649Z,2.60
2023-05-04T17:26:28.064Z,2.17
2023-05-04T17:31:32.244Z,2.05
2023-05-04T17:36:36.596Z,2.22
2023-05-04T17:41:42.611Z,2.50
2023-05-04T17:46:47.137Z,2.13
2023-05-04T17:51:52.887Z,2.83
2023-05-04T17:56:59.113Z,2.35
2023-05-04T18:02:03.730Z,2.47
2023-05-04T18:07:08.024Z,2.55
2023-05-04T18:12:14.463Z,2.70
2023-05-04T18:17:18.907Z,2.60
2023-05-04T18:22:23.292Z,2.75
2023-05-04T18:27:32.950Z,2.75
2023-05-04T18:32:37.058Z,2.22
2023-05-04T18:37:41.493Z,2.60
2023-05-04T18:42:47.462Z,2.80
2023-05-04T18:47:51.436Z,3.08
2023-05-04T18:52:55.635Z,2.50
2023-05-04T18:58:03.437Z,2.53
2023-05-04T19:03:08.102Z,2.28
2023-05-04T19:08:12.167Z,3.08
2023-05-04T19:13:20.462Z,2.40
2023-05-04T19:18:24.954Z,2.55
2023-05-04T19:23:29.263Z,2.25
2023-05-04T19:28:35.398Z,2.63
2023-05-04T19:33:47.960Z,2.58
2023-05-04T19:38:52.681Z,2.50
2023-05-04T19:43:59.312Z,2.50
2023-05-04T19:49:03.905Z,2.58
2023-05-04T19:54:10.464Z,2.55
2023-05-04T19:59:17.617Z,2.58
2023-05-04T20:04:21.565Z,3.00
2023-05-04T20:09:25.716Z,2.97
2023-05-04T20:14:31.625Z,3.00
2023-05-04T20:19:35.517Z,3.03
2023-05-04T20:24:40.255Z,2.85
2023-05-04T20:29:46.441Z,2.85
2023-05-04T20:34:50.569Z,3.20
2023-05-04T20:39:54.947Z,2.95
2023-05-04T20:45:01.124Z,3.08
2023-05-04T20:50:05.425Z,3.30
2023-05-04T20:55:10.788Z,3.27
2023-05-04T21:00:18.557Z,3.45
2023-05-04T21:05:22.637Z,3.30
